Time;durP1;ratioP1;P1;durP2;ratioP2;P2;SDS_P1;SDS_P2;PMS_P1;PMS_P2;Temp;Humidity;BMP_temperature;BMP_pressure;BME280_temperature;BME280_humidity;BME280_pressure;Samples;Min_cycle;Max_cycle;Signal;HPM_P1;HPM_P2
2022/02/22 00:01:35;;;;;;;3.67;1.65;;;7.30;99.90;;;;;;5061832;28;20498;-74
2022/02/22 00:04:01;;;;;;;1.35;1.23;;;7.40;99.90;;;;;;5056435;28;20131;-73
2022/02/22 00:06:27;;;;;;;2.38;1.88;;;7.40;99.90;;;;;;5055376;28;20029;-74
2022/02/22 00:08:53;;;;;;;1.67;1.10;;;7.30;99.90;;;;;;5064547;28;20044;-73
2022/02/22 00:11:19;;;;;;;3.83;1.70;;;7.20;99.90;;;;;;5073231;28;20036;-73
2022/02/22 00:13:44;;;;;;;2.10;1.77;;;7.10;99.90;;;;;;5061797;28;20069;-73
2022/02/22 00:16:10;;;;;;;1.88;1.50;;;7.20;99.90;;;;;;5055823;28;20578;-74
2022/02/22 00:18:36;;;;;;;4.50;1.17;;;7.20;99.90;;;;;;5060486;28;20028;-73
2022/02/22 00:21:02;;;;;;;3.78;1.60;;;7.30;99.90;;;;;;5052784;28;20494;-73
2022/02/22 00:23:28;;;;;;;1.70;1.20;;;7.40;99.90;;;;;;5060078;28;20024;-73
2022/02/22 00:25:53;;;;;;;2.47;0.88;;;7.50;99.90;;;;;;5053001;28;20039;-72
2022/02/22 00:28:20;;;;;;;1.48;1.38;;;7.60;99.90;;;;;;5060297;28;20102;-72
2022/02/22 00:30:47;;;;;;;1.30;1.08;;;7.60;99.90;;;;;;5055887;28;20029;-71
2022/02/22 00:33:13;;;;;;;2.72;1.95;;;7.70;99.90;;;;;;5073132;28;20101;-72
2022/02/22 00:35:39;;;;;;;3.88;1.40;;;7.60;99.90;;;;;;5052202;28;20268;-73
2022/02/22 00:38:05;;;;;;;0.90;0.90;;;7.50;99.90;;;;;;5064677;28;20035;-72
2022/02/22 00:40:31;;;;;;;2.28;1.45;;;7.50;99.90;;;;;;5056122;28;20130;-74
2022/02/22 00:42:57;;;;;;;4.13;1.38;;;7.30;99.90;;;;;;5066936;28;20051;-73
2022/02/22 00:45:22;;;;;;;2.80;1.40;;;7.30;99.90;;;;;;5059756;28;20025;-73
2022/02/22 00:47:48;;;;;;;1.40;1.00;;;7.10;99.90;;;;;;5052433;28;20095;-73
2022/02/22 00:50:14;;;;;;;2.88;1.88;;;7.00;99.90;;;;;;5051689;28;20371;-72
2022/02/22 00:52:40;;;;;;;3.47;2.00;;;7.00;99.90;;;;;;5057749;28;20024;-71
2022/02/22 00:55:06;;;;;;;1.40;1.20;;;6.80;99.90;;;;;;5050040;28;20112;-73
2022/02/22 00:57:32;;;;;;;3.85;1.20;;;6.80;99.90;;;;;;5056885;28;20033;-72
2022/02/22 00:59:58;;;;;;;3.80;1.50;;;6.80;99.90;;;;;;5056575;28;20027;-72
2022/02/22 01:02:23;;;;;;;2.42;1.30;;;6.90;99.90;;;;;;5057852;28;20506;-70
2022/02/22 01:04:49;;;;;;;1.67;1.08;;;7.00;99.90;;;;;;5059165;28;20025;-72
2022/02/22 01:07:18;;;;;;;2.83;1.80;;;7.00;99.90;;;;;;5064130;28;20028;-72
2022/02/22 01:09:45;;;;;;;1.95;1.50;;;7.10;99.90;;;;;;5058992;28;20021;-72
2022/02/22 01:12:12;;;;;;;2.70;1.83;;;7.00;99.90;;;;;;5062251;28;20044;-72
2022/02/22 01:14:38;;;;;;;2.55;1.33;;;6.90;99.90;;;;;;5071476;28;20028;-72
2022/02/22 01:17:04;;;;;;;1.70;1.38;;;6.80;99.90;;;;;;5062467;28;20486;-71
2022/02/22 01:19:30;;;;;;;1.92;1.45;;;6.80;99.90;;;;;;5057560;28;20159;-71
2022/02/22 01:21:56;;;;;;;3.65;1.95;;;6.80;99.90;;;;;;5059364;28;20100;-72
2022/02/22 01:24:22;;;;;;;1.13;1.00;;;6.70;99.90;;;;;;5063733;28;20020;-72
2022/02/22 01:26:47;;;;;;;1.70;1.60;;;6.80;99.90;;;;;;5061440;28;20039;-72
2022/02/22 01:29:13;;;;;;;2.00;1.42;;;6.70;99.90;;;;;;5061352;28;20020;-71
2022/02/22 01:31:39;;;;;;;1.42;1.05;;;6.80;99.90;;;;;;5063111;28;20024;-71
2022/02/22 01:34:04;;;;;;;2.88;1.70;;;6.70;99.90;;;;;;5058745;28;20020;-71
2022/02/22 01:36:30;;;;;;;2.90;1.48;;;6.60;99.90;;;;;;5060353;28;20070;-71
2022/02/22 01:38:56;;;;;;;2.90;1.50;;;6.60;99.90;;;;;;5060477;28;20037;-72
2022/02/22 01:41:23;;;;;;;3.38;1.48;;;6.60;99.90;;;;;;5056981;28;20508;-73
2022/02/22 01:43:49;;;;;;;1.83;1.33;;;6.70;99.90;;;;;;5064632;28;20021;-71
2022/02/22 01:46:15;;;;;;;2.67;1.73;;;6.70;99.90;;;;;;5057205;28;20032;-72
2022/02/22 01:48:41;;;;;;;6.90;2.22;;;6.70;99.90;;;;;;5055916;28;20097;-71
2022/02/22 01:51:07;;;;;;;2.25;1.40;;;6.70;99.90;;;;;;5059288;28;20029;-71
2022/02/22 01:53:33;;;;;;;1.58;1.48;;;6.70;99.90;;;;;;5056116;28;20090;-70
2022/02/22 01:56:03;;;;;;;1.80;1.30;;;6.70;99.90;;;;;;5059460;28;20541;-71
2022/02/22 01:58:29;;;;;;;2.30;1.30;;;6.70;99.90;;;;;;5056896;28;20025;-73
2022/02/22 02:00:56;;;;;;;2.60;1.30;;;6.90;99.90;;;;;;5067099;28;20071;-71
2022/02/22 02:03:22;;;;;;;2.03;1.52;;;7.10;99.90;;;;;;5071418;28;20037;-71
2022/02/22 02:05:48;;;;;;;1.45;1.35;;;7.10;99.90;;;;;;5060932;28;20086;-71
2022/02/22 02:08:14;;;;;;;3.05;1.48;;;7.10;99.90;;;;;;5056602;28;20402;-72
2022/02/22 02:10:41;;;;;;;3.35;2.13;;;7.00;99.90;;;;;;5060477;28;20028;-72
2022/02/22 02:13:06;;;;;;;1.48;1.38;;;6.90;99.90;;;;;;5059516;28;20060;-72
2022/02/22 02:15:32;;;;;;;2.47;1.85;;;6.80;99.90;;;;;;5058806;28;20044;-71
2022/02/22 02:17:58;;;;;;;3.13;1.67;;;6.70;99.90;;;;;;5058367;28;20021;-71
2022/02/22 02:20:24;;;;;;;2.13;1.20;;;6.70;99.90;;;;;;5060644;28;20395;-72
2022/02/22 02:22:49;;;;;;;1.58;1.42;;;6.70;99.90;;;;;;5056089;28;20021;-73
2022/02/22 02:25:16;;;;;;;5.15;1.45;;;6.70;99.90;;;;;;5056873;28;20028;-72
2022/02/22 02:27:42;;;;;;;1.77;1.40;;;6.70;99.90;;;;;;5058649;28;20031;-73
2022/02/22 02:30:10;;;;;;;1.20;1.13;;;6.60;99.90;;;;;;5059006;28;20037;-73
2022/02/22 02:32:36;;;;;;;2.45;1.83;;;6.70;99.90;;;;;;5058675;28;20031;-72
2022/02/22 02:35:03;;;;;;;0.98;0.93;;;6.70;99.90;;;;;;5062702;28;20379;-71
2022/02/22 02:37:29;;;;;;;2.72;1.48;;;6.70;99.90;;;;;;5055337;28;20036;-70
2022/02/22 02:39:55;;;;;;;4.43;2.13;;;6.60;99.90;;;;;;5055644;28;20099;-72
2022/02/22 02:42:21;;;;;;;2.03;1.27;;;6.60;99.90;;;;;;5056917;28;20032;-72
2022/02/22 02:44:48;;;;;;;1.33;1.20;;;6.60;99.90;;;;;;5061877;28;20036;-72
2022/02/22 02:47:15;;;;;;;2.10;1.52;;;6.60;99.90;;;;;;5062979;28;20052;-73
2022/02/22 02:49:42;;;;;;;2.65;1.50;;;6.60;99.90;;;;;;5059169;28;20020;-71
2022/02/22 02:52:09;;;;;;;6.72;1.50;;;6.60;99.90;;;;;;5076397;28;20105;-72
2022/02/22 02:54:35;;;;;;;2.05;1.02;;;6.60;99.90;;;;;;5065751;28;20207;-72
2022/02/22 02:57:01;;;;;;;1.90;1.40;;;6.60;99.90;;;;;;5059005;28;20467;-74
2022/02/22 02:59:27;;;;;;;2.90;1.38;;;6.50;99.90;;;;;;5052735;28;20061;-71
2022/02/22 03:01:53;;;;;;;2.95;1.77;;;6.50;99.90;;;;;;5051104;28;20108;-72
2022/02/22 03:04:19;;;;;;;1.30;0.85;;;6.50;99.90;;;;;;5070502;28;20025;-71
2022/02/22 03:06:46;;;;;;;1.70;1.38;;;6.60;99.90;;;;;;5067246;28;20020;-71
2022/02/22 03:09:12;;;;;;;1.38;1.27;;;6.50;99.90;;;;;;5070885;28;20453;-71
2022/02/22 03:11:38;;;;;;;2.42;1.42;;;6.50;99.90;;;;;;5068759;28;20021;-71
2022/02/22 03:14:05;;;;;;;7.97;1.98;;;6.40;99.90;;;;;;5070675;28;20016;-71
2022/02/22 03:16:31;;;;;;;4.00;1.48;;;6.30;99.90;;;;;;5085822;28;20448;-71
2022/02/22 03:18:57;;;;;;;1.58;1.35;;;6.30;99.90;;;;;;5066601;28;20073;-71
2022/02/22 03:21:23;;;;;;;4.10;1.60;;;6.30;99.90;;;;;;5070572;28;20059;-71
2022/02/22 03:23:49;;;;;;;1.30;1.17;;;6.30;99.90;;;;;;5067334;28;20382;-72
2022/02/22 03:26:14;;;;;;;2.25;1.95;;;6.40;99.90;;;;;;5069643;28;20029;-71
2022/02/22 03:28:40;;;;;;;1.25;1.05;;;6.30;99.90;;;;;;5070586;28;20024;-72
2022/02/22 03:31:06;;;;;;;6.15;3.00;;;6.20;99.90;;;;;;5051513;28;20337;-71
2022/02/22 03:33:33;;;;;;;2.22;1.75;;;6.20;99.90;;;;;;5066652;28;20017;-72
2022/02/22 03:35:59;;;;;;;3.03;2.72;;;6.10;99.90;;;;;;5067081;28;20379;-71
2022/02/22 03:38:25;;;;;;;1.27;0.90;;;5.90;99.90;;;;;;5055906;28;20468;-73
2022/02/22 03:40:51;;;;;;;3.35;1.73;;;5.90;99.90;;;;;;5057328;28;20028;-71
2022/02/22 03:43:17;;;;;;;2.47;1.20;;;5.90;99.90;;;;;;5070736;28;20112;-71
2022/02/22 03:45:43;;;;;;;3.47;1.52;;;6.10;99.90;;;;;;5062287;28;20031;-72
2022/02/22 03:48:09;;;;;;;2.72;1.60;;;6.10;99.90;;;;;;5068496;28;20091;-72
2022/02/22 03:50:35;;;;;;;2.17;1.65;;;6.10;99.90;;;;;;5066450;28;20090;-72
2022/02/22 03:53:01;;;;;;;6.53;2.17;;;6.10;99.90;;;;;;5070659;28;20029;-71
2022/02/22 03:55:27;;;;;;;2.30;1.58;;;6.00;99.90;;;;;;5067934;28;20020;-71
2022/02/22 03:57:53;;;;;;;3.05;1.55;;;5.90;99.90;;;;;;5070685;28;20043;-72
2022/02/22 04:00:22;;;;;;;2.00;1.42;;;5.80;99.90;;;;;;5058824;28;20032;-70
2022/02/22 04:02:48;;;;;;;2.33;1.45;;;5.70;99.90;;;;;;5071669;28;20123;-71
2022/02/22 04:05:16;;;;;;;3.78;2.05;;;5.70;99.90;;;;;;5068599;28;20397;-73
2022/02/22 04:07:42;;;;;;;2.33;1.38;;;5.60;99.90;;;;;;5065359;28;20057;-72
2022/02/22 04:10:09;;;;;;;3.08;1.63;;;5.60;99.90;;;;;;5063358;28;20397;-72
2022/02/22 04:12:36;;;;;;;2.08;1.55;;;5.50;99.90;;;;;;5070599;28;20091;-73
2022/02/22 04:15:03;;;;;;;1.55;1.10;;;5.40;99.90;;;;;;5066968;28;20031;-74
2022/02/22 04:17:29;;;;;;;3.67;1.70;;;5.30;99.90;;;;;;5080913;28;20111;-71
2022/02/22 04:19:55;;;;;;;1.98;1.83;;;5.40;99.90;;;;;;5078564;28;20115;-72
2022/02/22 04:22:21;;;;;;;2.17;1.52;;;5.30;99.90;;;;;;5069321;28;20035;-71
2022/02/22 04:24:47;;;;;;;2.78;1.52;;;5.20;99.90;;;;;;5067211;28;20031;-73
2022/02/22 04:27:13;;;;;;;3.95;2.78;;;5.20;99.90;;;;;;5070858;28;20035;-73
2022/02/22 04:29:39;;;;;;;7.53;2.45;;;5.10;99.90;;;;;;5096207;28;20111;-71
2022/02/22 04:32:07;;;;;;;2.83;2.30;;;5.00;99.90;;;;;;5060914;28;20639;-71
2022/02/22 04:34:34;;;;;;;2.92;2.58;;;5.00;99.90;;;;;;5066512;28;20040;-71
2022/02/22 04:37:00;;;;;;;2.63;2.00;;;5.00;99.90;;;;;;5066054;28;20059;-72
2022/02/22 04:39:26;;;;;;;4.05;2.40;;;5.00;99.90;;;;;;5054139;28;20032;-72
2022/02/22 04:41:52;;;;;;;3.85;2.15;;;5.00;99.90;;;;;;5069764;28;20027;-72
2022/02/22 04:44:18;;;;;;;2.63;2.15;;;4.90;99.90;;;;;;5063236;28;20111;-72
2022/02/22 04:46:44;;;;;;;3.20;2.08;;;4.90;99.90;;;;;;5054667;28;20025;-72
2022/02/22 04:49:11;;;;;;;8.52;2.92;;;4.90;99.90;;;;;;5057510;28;20100;-73
2022/02/22 04:51:42;;;;;;;4.90;2.95;;;4.80;99.90;;;;;;5060295;28;20017;-71
2022/02/22 04:54:09;;;;;;;2.38;2.03;;;4.80;99.90;;;;;;5055832;28;20383;-71
2022/02/22 04:56:35;;;;;;;6.93;2.88;;;4.80;99.90;;;;;;5055437;28;20036;-72
2022/02/22 04:59:01;;;;;;;7.78;2.55;;;4.90;99.90;;;;;;5060551;28;20025;-72
2022/02/22 05:01:27;;;;;;;7.15;3.33;;;4.90;99.90;;;;;;5063235;28;20166;-71
2022/02/22 05:03:52;;;;;;;6.53;2.97;;;4.80;99.90;;;;;;5060925;28;20029;-72
2022/02/22 05:06:18;;;;;;;2.95;2.53;;;4.70;99.90;;;;;;5073627;28;20033;-71
2022/02/22 05:08:44;;;;;;;11.82;3.33;;;4.60;99.90;;;;;;5062562;28;20019;-72
2022/02/22 05:11:11;;;;;;;4.00;2.70;;;4.50;99.90;;;;;;5063600;28;20020;-71
2022/02/22 05:13:37;;;;;;;7.68;2.92;;;4.60;99.90;;;;;;5053677;28;20017;-71
2022/02/22 05:16:03;;;;;;;4.45;2.88;;;4.70;99.90;;;;;;5056601;28;20094;-72
2022/02/22 05:18:29;;;;;;;4.47;2.90;;;4.70;99.90;;;;;;5060698;28;20279;-71
2022/02/22 05:20:55;;;;;;;7.07;3.47;;;4.80;99.90;;;;;;5060519;28;20097;-70
2022/02/22 05:23:26;;;;;;;3.72;2.88;;;4.80;99.90;;;;;;5065435;28;20033;-71
2022/02/22 05:25:52;;;;;;;6.72;3.15;;;4.70;99.90;;;;;;5065125;28;20027;-71
2022/02/22 05:28:22;;;;;;;4.35;2.70;;;4.70;99.90;;;;;;5059928;28;20033;-71
2022/02/22 05:30:49;;;;;;;6.45;3.78;;;4.70;99.90;;;;;;5059262;28;20085;-72
2022/02/22 05:33:15;;;;;;;9.38;5.70;;;4.60;99.90;;;;;;5062137;28;20072;-74
2022/02/22 05:35:43;;;;;;;8.15;3.08;;;4.80;99.90;;;;;;5061651;28;20116;-70
2022/02/22 05:38:09;;;;;;;4.97;3.38;;;4.80;99.90;;;;;;5072483;28;20009;-73
2022/02/22 05:40:35;;;;;;;6.22;3.05;;;4.70;99.90;;;;;;5067892;28;20024;-71
2022/02/22 05:43:01;;;;;;;4.18;2.58;;;4.70;99.90;;;;;;5062215;28;20435;-72
2022/02/22 05:45:26;;;;;;;5.50;3.85;;;4.60;99.90;;;;;;5067177;28;20021;-71
2022/02/22 05:47:53;;;;;;;5.03;2.90;;;4.70;99.90;;;;;;5076696;28;20028;-71
2022/02/22 05:50:18;;;;;;;6.72;3.60;;;4.60;99.90;;;;;;5075844;28;20029;-71
2022/02/22 05:52:44;;;;;;;5.63;4.07;;;4.60;99.90;;;;;;5072968;28;20021;-71
2022/02/22 05:55:10;;;;;;;5.82;2.75;;;4.50;99.90;;;;;;5072150;28;20040;-72
2022/02/22 05:57:38;;;;;;;4.35;2.97;;;4.50;99.90;;;;;;5061479;28;20047;-72
2022/02/22 06:00:06;;;;;;;4.55;2.70;;;4.50;99.90;;;;;;5070940;28;20032;-72
2022/02/22 06:02:33;;;;;;;5.28;2.78;;;4.50;99.90;;;;;;5067244;28;20071;-72
2022/02/22 06:04:58;;;;;;;4.38;2.72;;;4.60;99.90;;;;;;5087783;28;20133;-70
2022/02/22 06:07:24;;;;;;;4.55;3.10;;;4.60;99.90;;;;;;5075536;28;20052;-70
2022/02/22 06:09:50;;;;;;;7.57;2.65;;;4.60;99.90;;;;;;5070938;28;20375;-71
2022/02/22 06:12:15;;;;;;;2.70;2.45;;;4.60;99.90;;;;;;5061047;28;20025;-71
2022/02/22 06:14:41;;;;;;;7.93;3.13;;;4.60;99.90;;;;;;5055985;28;20028;-71
2022/02/22 06:17:07;;;;;;;7.57;3.70;;;4.70;99.90;;;;;;5053915;28;20503;-72
2022/02/22 06:19:33;;;;;;;12.98;4.28;;;4.60;99.90;;;;;;5065634;28;20059;-73
2022/02/22 06:21:59;;;;;;;5.93;3.63;;;4.50;99.90;;;;;;5055003;28;20071;-73
2022/02/22 06:24:24;;;;;;;6.18;3.35;;;4.50;99.90;;;;;;5064027;28;20441;-73
2022/02/22 06:26:50;;;;;;;6.05;4.35;;;4.40;99.90;;;;;;5062822;28;20029;-73
2022/02/22 06:29:18;;;;;;;17.15;4.70;;;4.40;99.90;;;;;;5070580;28;20017;-72
2022/02/22 06:31:44;;;;;;;10.00;3.90;;;4.50;99.90;;;;;;5067976;28;20027;-72
2022/02/22 06:34:10;;;;;;;10.38;4.82;;;4.50;99.90;;;;;;5060741;28;20029;-71
2022/02/22 06:36:35;;;;;;;10.88;5.10;;;4.60;99.90;;;;;;5062999;28;20071;-72
2022/02/22 06:39:01;;;;;;;8.65;4.47;;;4.80;99.90;;;;;;5065019;28;20028;-72
2022/02/22 06:41:28;;;;;;;9.93;5.25;;;4.90;99.90;;;;;;5060441;28;20683;-72
2022/02/22 06:43:54;;;;;;;22.00;5.82;;;4.80;99.90;;;;;;5071009;28;20031;-73
2022/02/22 06:46:19;;;;;;;6.05;3.67;;;4.80;99.90;;;;;;5070804;28;20032;-73
2022/02/22 06:48:45;;;;;;;6.00;3.33;;;4.90;99.90;;;;;;5067187;28;20124;-73
2022/02/22 06:51:11;;;;;;;7.00;4.18;;;4.80;99.90;;;;;;5059889;28;20116;-72
2022/02/22 06:53:37;;;;;;;7.60;3.90;;;4.80;99.90;;;;;;5051852;28;20043;-71
2022/02/22 06:56:03;;;;;;;9.45;3.90;;;4.90;99.90;;;;;;5069157;28;20025;-72
2022/02/22 06:58:29;;;;;;;6.35;5.57;;;5.20;99.90;;;;;;5068531;28;20016;-72
2022/02/22 07:00:58;;;;;;;9.40;5.22;;;5.40;99.90;;;;;;5079808;28;20036;-73
2022/02/22 07:03:26;;;;;;;8.63;5.32;;;5.40;99.90;;;;;;5072315;28;20514;-72
2022/02/22 07:05:53;;;;;;;7.40;3.83;;;5.30;99.90;;;;;;5070402;28;20067;-66
2022/02/22 07:08:21;;;;;;;15.50;6.93;;;5.20;99.90;;;;;;5064933;28;20052;-67
2022/02/22 07:10:49;;;;;;;5.75;4.45;;;5.20;99.90;;;;;;5052761;28;20020;-66
2022/02/22 07:13:15;;;;;;;6.57;4.07;;;5.40;99.90;;;;;;5068817;28;20021;-66
2022/02/22 07:15:41;;;;;;;11.77;5.47;;;5.40;99.90;;;;;;5059010;28;20383;-66
2022/02/22 07:18:13;;;;;;;12.73;5.25;;;5.30;99.90;;;;;;5069678;28;20052;-67
2022/02/22 07:20:39;;;;;;;15.65;4.78;;;5.50;99.90;;;;;;5061081;28;20025;-67
2022/02/22 07:23:05;;;;;;;12.10;4.90;;;5.60;99.90;;;;;;5059193;28;20017;-66
2022/02/22 07:25:32;;;;;;;14.40;6.30;;;5.70;99.90;;;;;;5056378;28;20479;-66
2022/02/22 07:27:59;;;;;;;9.43;5.65;;;5.70;99.90;;;;;;5067695;28;20036;-69
2022/02/22 07:30:32;;;;;;;5.93;5.05;;;5.80;99.90;;;;;;5056711;28;20070;-68
2022/02/22 07:33:01;;;;;;;10.57;5.18;;;5.90;99.90;;;;;;5074945;28;20077;-68
2022/02/22 07:35:28;;;;;;;6.50;4.15;;;6.00;99.90;;;;;;5061860;28;20017;-67
2022/02/22 07:37:57;;;;;;;8.32;4.50;;;6.40;99.90;;;;;;5060675;28;20021;-67
2022/02/22 07:40:27;;;;;;;6.68;4.05;;;6.80;99.90;;;;;;5061356;28;20025;-67
2022/02/22 07:43:03;;;;;;;9.95;4.20;;;7.00;99.90;;;;;;5059442;28;20032;-68
2022/02/22 07:45:31;;;;;;;5.35;3.92;;;7.10;99.90;;;;;;5060297;28;20139;-68
2022/02/22 07:48:03;;;;;;;9.20;4.25;;;7.30;99.90;;;;;;5060737;28;20021;-68
2022/02/22 07:50:29;;;;;;;7.60;4.43;;;7.40;99.90;;;;;;5056647;28;20019;-67
2022/02/22 07:52:55;;;;;;;7.57;3.53;;;7.40;99.90;;;;;;5062766;28;20031;-68
2022/02/22 07:55:21;;;;;;;5.03;4.13;;;7.40;99.90;;;;;;5056100;28;20036;-67
2022/02/22 07:57:53;;;;;;;5.63;3.78;;;7.50;99.90;;;;;;5074441;28;20784;-68
2022/02/22 08:00:19;;;;;;;5.78;4.22;;;7.70;99.90;;;;;;5055060;28;20029;-70
2022/02/22 08:02:45;;;;;;;8.45;3.70;;;7.60;99.90;;;;;;5057651;28;20480;-69
2022/02/22 08:05:11;;;;;;;6.55;3.50;;;7.70;99.90;;;;;;5057856;28;20095;-68
2022/02/22 08:07:37;;;;;;;8.75;3.97;;;7.70;99.90;;;;;;5057455;28;20056;-70
2022/02/22 08:10:08;;;;;;;8.20;3.33;;;7.80;99.90;;;;;;5054595;28;20419;-67
2022/02/22 08:12:34;;;;;;;4.22;2.58;;;8.00;99.90;;;;;;5068790;28;20035;-67
2022/02/22 08:15:00;;;;;;;4.90;3.30;;;8.10;99.90;;;;;;5059555;28;20040;-67
2022/02/22 08:17:26;;;;;;;4.50;2.72;;;8.20;99.90;;;;;;5058260;28;20483;-67
2022/02/22 08:19:54;;;;;;;3.22;2.42;;;8.30;99.90;;;;;;5056636;28;20075;-68
2022/02/22 08:22:20;;;;;;;7.78;2.55;;;8.40;99.90;;;;;;5060644;28;20115;-67
2022/02/22 08:24:45;;;;;;;5.10;2.65;;;8.40;99.90;;;;;;5070778;28;20163;-68
2022/02/22 08:27:13;;;;;;;8.07;3.35;;;8.40;99.90;;;;;;5074570;28;20391;-67
2022/02/22 08:29:38;;;;;;;11.68;3.97;;;8.50;99.90;;;;;;5053673;28;20112;-68
2022/02/22 08:32:04;;;;;;;10.40;3.60;;;8.40;99.90;;;;;;5060686;28;20027;-68
2022/02/22 08:34:30;;;;;;;9.63;3.15;;;8.40;99.90;;;;;;5058682;28;20106;-67
2022/02/22 08:36:56;;;;;;;7.47;3.13;;;8.50;99.90;;;;;;5058705;28;20029;-68
2022/02/22 08:39:24;;;;;;;3.90;2.10;;;8.50;99.90;;;;;;5056310;28;20078;-67
2022/02/22 08:41:50;;;;;;;1.65;1.52;;;8.60;99.90;;;;;;5056693;28;20031;-67
2022/02/22 08:44:26;;;;;;;8.00;3.58;;;8.70;99.90;;;;;;5060328;28;20696;-68
2022/02/22 08:46:55;;;;;;;14.27;2.90;;;8.80;99.90;;;;;;5074580;28;20041;-66
2022/02/22 08:49:20;;;;;;;5.30;3.67;;;8.90;99.90;;;;;;5051365;28;20035;-67
2022/02/22 08:51:46;;;;;;;3.92;2.55;;;8.90;99.90;;;;;;5053256;28;20016;-68
2022/02/22 08:54:12;;;;;;;6.13;3.70;;;9.00;99.90;;;;;;5059153;28;20033;-68
2022/02/22 08:56:37;;;;;;;8.25;3.35;;;9.10;99.90;;;;;;5051566;28;20021;-67
2022/02/22 08:59:03;;;;;;;16.42;4.25;;;9.20;99.90;;;;;;5073679;28;20347;-68
2022/02/22 09:01:29;;;;;;;10.70;4.47;;;9.20;99.90;;;;;;5075462;28;20116;-65
2022/02/22 09:03:55;;;;;;;8.43;4.00;;;9.40;99.90;;;;;;5057753;28;20021;-66
2022/02/22 09:06:20;;;;;;;6.07;3.85;;;9.50;99.90;;;;;;5057541;28;20112;-69
2022/02/22 09:08:46;;;;;;;6.50;3.05;;;9.60;99.90;;;;;;5053955;28;20021;-67
2022/02/22 09:11:12;;;;;;;5.03;2.90;;;9.60;99.90;;;;;;5054321;28;20028;-68
2022/02/22 09:13:37;;;;;;;5.53;3.22;;;9.80;99.90;;;;;;5062234;28;20017;-68
2022/02/22 09:16:03;;;;;;;6.35;3.78;;;9.80;99.90;;;;;;5055524;28;20029;-69
2022/02/22 09:18:29;;;;;;;8.65;3.83;;;9.90;99.90;;;;;;5068560;28;20033;-68
2022/02/22 09:20:55;;;;;;;10.15;3.53;;;9.90;99.90;;;;;;5077955;28;20045;-70
2022/02/22 09:23:21;;;;;;;9.93;3.30;;;10.00;99.90;;;;;;5053950;28;20090;-70
2022/02/22 09:25:46;;;;;;;9.23;4.03;;;10.00;99.90;;;;;;5059056;28;20028;-70
2022/02/22 09:28:12;;;;;;;7.10;2.70;;;10.10;99.90;;;;;;5056380;28;20029;-67
2022/02/22 09:30:38;;;;;;;8.18;2.88;;;10.20;99.90;;;;;;5066388;28;20033;-69
2022/02/22 09:33:06;;;;;;;15.75;3.17;;;10.30;99.90;;;;;;5063025;28;20040;-68
2022/02/22 09:35:32;;;;;;;5.05;3.10;;;10.40;99.90;;;;;;5063775;28;20155;-67
2022/02/22 09:37:59;;;;;;;4.57;2.45;;;10.50;99.90;;;;;;5084470;28;20024;-68
2022/02/22 09:40:26;;;;;;;6.07;2.40;;;10.50;99.90;;;;;;5059413;28;20347;-67
2022/02/22 09:42:53;;;;;;;9.70;2.70;;;10.50;99.90;;;;;;5056560;28;20029;-67
2022/02/22 09:45:20;;;;;;;7.38;2.33;;;10.40;99.90;;;;;;5059829;28;20118;-68
2022/02/22 09:47:47;;;;;;;10.25;3.03;;;10.40;99.90;;;;;;5057808;28;20094;-66
2022/02/22 09:50:14;;;;;;;8.88;2.70;;;10.40;99.90;;;;;;5059323;28;20021;-67
2022/02/22 09:52:40;;;;;;;9.30;2.75;;;10.50;99.90;;;;;;5058788;28;20027;-68
2022/02/22 09:55:07;;;;;;;4.95;2.83;;;10.50;99.90;;;;;;5060625;28;20052;-67
2022/02/22 09:57:33;;;;;;;5.72;2.85;;;10.40;99.90;;;;;;5085792;28;20020;-68
2022/02/22 09:59:59;;;;;;;4.20;2.53;;;10.40;99.90;;;;;;5060438;28;20029;-67
2022/02/22 10:02:38;;;;;;;5.22;2.17;;;10.40;99.90;;;;;;5068684;28;20127;-66
2022/02/22 10:05:22;;;;;;;4.50;2.08;;;10.50;99.90;;;;;;5066665;28;20074;-66
2022/02/22 10:07:52;;;;;;;2.33;1.50;;;10.50;99.90;;;;;;5059597;28;20504;-67
2022/02/22 10:10:18;;;;;;;5.95;2.40;;;10.50;99.90;;;;;;5057992;28;20064;-66
2022/02/22 10:12:44;;;;;;;9.93;2.38;;;10.50;99.90;;;;;;5060031;28;20043;-68
2022/02/22 10:15:10;;;;;;;4.90;2.15;;;10.40;99.90;;;;;;5055322;28;20487;-66
2022/02/22 10:17:36;;;;;;;5.05;2.10;;;10.30;99.90;;;;;;5057908;28;20029;-66
2022/02/22 10:20:04;;;;;;;6.55;2.30;;;10.30;99.90;;;;;;5058997;28;20094;-66
2022/02/22 10:22:31;;;;;;;4.68;3.10;;;10.20;99.90;;;;;;5074837;28;20644;-66
2022/02/22 10:25:05;;;;;;;3.53;2.05;;;10.30;99.90;;;;;;5057680;28;20098;-66
2022/02/22 10:27:48;;;;;;;2.85;2.63;;;10.40;99.90;;;;;;5066443;28;20075;-66
2022/02/22 10:30:41;;;;;;;3.97;2.38;;;10.50;99.90;;;;;;5056565;28;20044;-69
2022/02/22 10:33:11;;;;;;;9.30;2.75;;;10.50;99.90;;;;;;5058514;28;20564;-68
2022/02/22 10:35:38;;;;;;;6.72;1.80;;;10.40;99.90;;;;;;5053327;28;20033;-66
2022/02/22 10:38:16;;;;;;;3.60;1.90;;;10.30;99.90;;;;;;5063164;28;20108;-67
2022/02/22 10:40:43;;;;;;;4.30;1.80;;;10.00;99.90;;;;;;5058299;28;20056;-67
2022/02/22 10:43:20;;;;;;;4.95;2.83;;;10.00;99.90;;;;;;5066234;28;20031;-67
2022/02/22 10:45:54;;;;;;;7.38;2.83;;;10.00;99.90;;;;;;5058558;28;20029;-67
2022/02/22 10:48:30;;;;;;;4.03;1.95;;;10.10;99.90;;;;;;5062300;28;20024;-68
2022/02/22 10:50:58;;;;;;;6.03;3.58;;;10.10;99.90;;;;;;5057767;28;20035;-65
2022/02/22 10:53:29;;;;;;;4.00;2.33;;;10.10;99.90;;;;;;5071445;28;20483;-67
2022/02/22 10:55:57;;;;;;;8.77;2.08;;;10.10;99.90;;;;;;5061938;28;20037;-66
2022/02/22 10:58:24;;;;;;;3.72;2.17;;;10.20;99.90;;;;;;5062467;28;20028;-65
2022/02/22 11:00:49;;;;;;;6.32;2.13;;;10.10;99.90;;;;;;5059317;28;20031;-68
2022/02/22 11:03:15;;;;;;;3.22;1.92;;;10.10;99.90;;;;;;5054782;28;20024;-66
2022/02/22 11:05:41;;;;;;;3.28;1.90;;;10.10;99.90;;;;;;5056994;28;20491;-66
2022/02/22 11:08:07;;;;;;;10.88;1.90;;;10.30;99.90;;;;;;5058127;28;20401;-65
2022/02/22 11:10:33;;;;;;;2.38;2.17;;;10.20;99.90;;;;;;5052180;28;20459;-66
2022/02/22 11:13:01;;;;;;;2.55;1.90;;;10.20;99.90;;;;;;5072628;28;20026;-66
2022/02/22 11:15:38;;;;;;;4.28;2.25;;;10.20;99.90;;;;;;5062271;28;20034;-65
2022/02/22 11:18:18;;;;;;;2.60;2.40;;;10.10;99.90;;;;;;5068918;28;20416;-67
2022/02/22 11:20:44;;;;;;;3.42;2.40;;;10.20;99.90;;;;;;5061823;28;20438;-66
2022/02/22 11:23:15;;;;;;;3.78;2.22;;;10.20;99.90;;;;;;5059672;28;20028;-65
2022/02/22 11:25:42;;;;;;;3.38;2.67;;;10.20;99.90;;;;;;5064632;28;20453;-66
2022/02/22 11:28:10;;;;;;;4.90;2.13;;;10.30;99.90;;;;;;5054277;28;20155;-67
2022/02/22 11:30:37;;;;;;;2.45;2.10;;;10.40;99.90;;;;;;5062081;28;20019;-66
2022/02/22 11:33:08;;;;;;;8.68;2.40;;;10.50;99.90;;;;;;5068826;28;20074;-67
2022/02/22 11:35:57;;;;;;;7.53;2.67;;;10.60;99.90;;;;;;5059244;28;20029;-68
2022/02/22 11:38:25;;;;;;;5.28;2.20;;;10.80;99.90;;;;;;5058620;28;20047;-68
2022/02/22 11:40:53;;;;;;;4.85;2.60;;;11.00;99.90;;;;;;5058922;28;20028;-68
2022/02/22 11:43:20;;;;;;;6.05;2.55;;;11.10;99.90;;;;;;5063138;28;20117;-67
2022/02/22 11:45:50;;;;;;;6.22;2.80;;;11.20;99.90;;;;;;5058201;28;20027;-68
2022/02/22 11:48:25;;;;;;;4.72;2.75;;;11.30;99.90;;;;;;5061626;28;20562;-67
2022/02/22 11:50:54;;;;;;;3.38;2.70;;;11.50;99.90;;;;;;5063855;28;20375;-70
2022/02/22 11:53:27;;;;;;;3.17;2.40;;;11.50;99.90;;;;;;5065320;28;20032;-68
2022/02/22 11:55:56;;;;;;;5.05;3.33;;;11.70;99.90;;;;;;5055113;28;20033;-68
2022/02/22 11:58:25;;;;;;;2.80;2.13;;;11.90;99.90;;;;;;5052401;28;20085;-68
2022/02/22 12:00:54;;;;;;;3.10;2.35;;;12.00;99.90;;;;;;5076952;28;20021;-67
2022/02/22 12:03:22;;;;;;;3.38;2.05;;;12.00;99.90;;;;;;5058468;28;20029;-67
2022/02/22 12:05:57;;;;;;;2.88;1.48;;;11.90;99.90;;;;;;5056617;28;20025;-68
2022/02/22 12:08:28;;;;;;;3.47;1.40;;;12.00;99.90;;;;;;5063923;28;20124;-67
2022/02/22 12:10:56;;;;;;;26.75;15.32;;;12.20;99.90;;;;;;5056970;28;20074;-67
2022/02/22 12:13:46;;;;;;;18.20;5.10;;;12.30;99.90;;;;;;5060823;28;20071;-67
2022/02/22 12:16:21;;;;;;;9.73;4.18;;;12.50;99.90;;;;;;5055299;28;20055;-67
2022/02/22 12:18:52;;;;;;;10.52;3.38;;;12.40;99.90;;;;;;5060538;28;20028;-68
2022/02/22 12:21:25;;;;;;;81.20;40.95;;;12.40;99.90;;;;;;5059807;28;20508;-67
2022/02/22 12:23:51;;;;;;;31.15;18.85;;;12.30;99.90;;;;;;5061587;28;20024;-67
2022/02/22 12:26:20;;;;;;;6.32;4.55;;;12.30;99.90;;;;;;5055884;28;20036;-69
2022/02/22 12:29:03;;;;;;;6.18;2.70;;;12.30;99.90;;;;;;5058226;28;20020;-67
2022/02/22 12:31:37;;;;;;;2.58;1.92;;;12.40;99.90;;;;;;5055243;28;20025;-68
2022/02/22 12:34:06;;;;;;;7.75;2.78;;;12.30;99.90;;;;;;5070638;28;20056;-66
2022/02/22 12:36:33;;;;;;;2.75;1.80;;;12.40;99.90;;;;;;5056371;28;20138;-67
2022/02/22 12:39:05;;;;;;;8.90;1.33;;;12.40;99.90;;;;;;5061586;28;20069;-68
2022/02/22 12:41:34;;;;;;;;;;;12.40;99.90;;;;;;5061735;28;20052;-67
2022/02/22 12:44:01;;;;;;;1.20;1.10;;;12.40;99.90;;;;;;5060889;28;20318;-67
2022/02/22 12:46:27;;;;;;;7.25;1.60;;;12.60;99.90;;;;;;5063143;28;20020;-66
2022/02/22 12:48:53;;;;;;;1.52;0.93;;;12.80;99.90;;;;;;5064473;28;20381;-68
2022/02/22 12:51:25;;;;;;;5.22;1.10;;;13.00;99.90;;;;;;5058133;28;20082;-69
2022/02/22 12:54:05;;;;;;;2.55;1.20;;;13.00;99.90;;;;;;5056754;28;20022;-68